Time;durP1;ratioP1;P1;durP2;ratioP2;P2;SDS_P1;SDS_P2;PMS_P1;PMS_P2;Temp;Humidity;BMP_temperature;BMP_pressure;BME280_temperature;BME280_humidity;BME280_pressure;Samples;Min_cycle;Max_cycle;Signal;HPM_P1;HPM_P2
2024/01/10 00:01:26;;;;;;;8.10;3.33;;;-4.20;99.90;;;;;;5043594;28;20041;-77
2024/01/10 00:03:54;;;;;;;5.13;3.67;;;-4.20;99.90;;;;;;5022148;28;20045;-77
2024/01/10 00:06:20;;;;;;;13.57;4.93;;;-4.30;99.90;;;;;;5040895;28;20048;-77
2024/01/10 00:08:45;;;;;;;14.18;4.22;;;-4.30;99.90;;;;;;5037341;28;20037;-77
2024/01/10 00:11:11;;;;;;;9.65;5.55;;;-4.30;99.90;;;;;;5018687;28;20055;-77
2024/01/10 00:13:37;;;;;;;6.00;2.95;;;-4.30;99.90;;;;;;5041490;28;20053;-77
2024/01/10 00:16:03;;;;;;;5.55;1.92;;;-4.30;99.90;;;;;;5034700;28;20068;-77
2024/01/10 00:18:29;;;;;;;10.70;4.10;;;-4.30;99.90;;;;;;5060671;28;20044;-78
2024/01/10 00:20:54;;;;;;;8.32;4.35;;;-4.30;99.90;;;;;;5055843;28;20047;-78
2024/01/10 00:23:21;;;;;;;7.25;3.75;;;-4.30;99.90;;;;;;5022537;28;20047;-78
2024/01/10 00:25:47;;;;;;;4.68;3.90;;;-4.30;99.90;;;;;;5019289;28;20099;-77
2024/01/10 00:28:13;;;;;;;8.18;3.65;;;-4.30;99.90;;;;;;5039654;28;20069;-78
2024/01/10 00:30:39;;;;;;;14.10;4.60;;;-4.30;99.90;;;;;;5021992;28;20098;-77
2024/01/10 00:33:05;;;;;;;9.32;5.45;;;-4.30;99.90;;;;;;5019246;28;20116;-78
2024/01/10 00:35:31;;;;;;;15.88;5.70;;;-4.30;99.90;;;;;;5035201;28;20049;-77
2024/01/10 00:37:57;;;;;;;4.93;3.58;;;-4.30;99.90;;;;;;5018920;28;20041;-78
2024/01/10 00:40:23;;;;;;;7.05;3.85;;;-4.30;99.90;;;;;;5007454;28;20083;-77
2024/01/10 00:42:49;;;;;;;8.98;3.53;;;-4.30;99.90;;;;;;5020279;28;20044;-77
2024/01/10 00:45:16;;;;;;;5.85;2.88;;;-4.30;99.90;;;;;;5037705;28;20049;-78
2024/01/10 00:47:42;;;;;;;7.13;3.80;;;-4.30;99.90;;;;;;5037319;28;20041;-78
2024/01/10 00:50:08;;;;;;;10.63;4.05;;;-4.30;99.90;;;;;;5034784;28;20048;-78
2024/01/10 00:52:34;;;;;;;11.82;4.13;;;-4.30;99.90;;;;;;5037816;28;20040;-78
2024/01/10 00:55:00;;;;;;;5.03;3.90;;;-4.20;99.90;;;;;;5030977;28;20041;-77
2024/01/10 00:57:26;;;;;;;9.98;5.10;;;-4.20;99.90;;;;;;5038435;28;20045;-77
2024/01/10 00:59:51;;;;;;;10.27;2.78;;;-4.20;99.90;;;;;;5030933;28;20041;-78
2024/01/10 01:02:17;;;;;;;10.90;3.65;;;-4.20;99.90;;;;;;5053875;28;20052;-77
2024/01/10 01:04:43;;;;;;;7.07;3.40;;;-4.20;99.90;;;;;;5054027;28;20049;-78
2024/01/10 01:07:09;;;;;;;7.57;3.60;;;-4.20;99.90;;;;;;5004006;28;20575;-78
2024/01/10 01:09:35;;;;;;;3.90;3.55;;;-4.30;99.90;;;;;;5020560;28;20055;-78
2024/01/10 01:12:00;;;;;;;9.32;4.78;;;-4.30;99.90;;;;;;5019941;28;20091;-78
2024/01/10 01:14:26;;;;;;;4.95;4.30;;;-4.30;99.90;;;;;;5002206;28;20190;-77
2024/01/10 01:16:52;;;;;;;6.20;3.22;;;-4.30;99.90;;;;;;5032952;28;20073;-78
2024/01/10 01:19:18;;;;;;;8.20;4.22;;;-4.30;99.90;;;;;;5038952;28;20064;-78
2024/01/10 01:21:43;;;;;;;8.85;5.10;;;-4.30;99.90;;;;;;5018509;28;20040;-78
2024/01/10 01:24:09;;;;;;;5.80;3.33;;;-4.30;99.90;;;;;;5003118;28;20041;-78
2024/01/10 01:26:35;;;;;;;8.75;4.10;;;-4.30;99.90;;;;;;5018800;28;20051;-78
2024/01/10 01:29:01;;;;;;;9.95;4.63;;;-4.30;99.90;;;;;;5052080;28;20389;-78
2024/01/10 01:31:26;;;;;;;7.03;3.65;;;-4.20;99.90;;;;;;5017673;28;20041;-77
2024/01/10 01:33:52;;;;;;;8.82;4.18;;;-4.30;99.90;;;;;;5033331;28;20113;-78
2024/01/10 01:36:18;;;;;;;6.60;3.88;;;-4.30;99.90;;;;;;5004477;28;20040;-78
2024/01/10 01:38:44;;;;;;;9.45;2.95;;;-4.40;99.90;;;;;;5014621;28;20064;-77
2024/01/10 01:41:10;;;;;;;13.07;5.07;;;-4.30;99.90;;;;;;5036491;28;20071;-78
2024/01/10 01:43:35;;;;;;;7.85;3.05;;;-4.30;99.90;;;;;;5025441;28;20046;-78
2024/01/10 01:46:02;;;;;;;8.73;4.07;;;-4.40;99.90;;;;;;5035383;28;20915;-78
2024/01/10 01:48:29;;;;;;;6.57;4.00;;;-4.40;99.90;;;;;;5036229;28;20041;-78
2024/01/10 01:51:04;;;;;;;9.90;3.00;;;-4.40;99.90;;;;;;5052097;28;20051;-78
2024/01/10 01:53:30;;;;;;;9.68;3.17;;;-4.40;99.90;;;;;;5038617;28;20052;-79
2024/01/10 01:55:56;;;;;;;12.77;4.15;;;-4.40;99.90;;;;;;5034612;28;20052;-78
2024/01/10 01:58:23;;;;;;;5.95;2.90;;;-4.40;99.90;;;;;;5021889;28;20045;-78
2024/01/10 02:00:49;;;;;;;7.07;3.67;;;-4.50;99.90;;;;;;5036326;28;20060;-78
2024/01/10 02:03:15;;;;;;;4.28;2.92;;;-4.50;99.90;;;;;;5057635;28;20053;-78
2024/01/10 02:05:41;;;;;;;9.52;2.47;;;-4.50;99.90;;;;;;5036804;28;20128;-78
2024/01/10 02:08:08;;;;;;;6.30;4.70;;;-4.50;99.90;;;;;;5035039;28;20053;-78
2024/01/10 02:10:34;;;;;;;5.82;3.15;;;-4.50;99.90;;;;;;5034681;28;20061;-78
2024/01/10 02:13:01;;;;;;;6.75;2.47;;;-4.50;99.90;;;;;;5019325;28;20061;-78
2024/01/10 02:15:27;;;;;;;10.45;3.92;;;-4.50;99.90;;;;;;5022849;28;20053;-78
2024/01/10 02:17:53;;;;;;;7.82;4.18;;;-4.50;99.90;;;;;;5039808;28;20045;-78
2024/01/10 02:20:20;;;;;;;4.75;2.92;;;-4.50;99.90;;;;;;5042052;28;20041;-78
2024/01/10 02:22:46;;;;;;;5.57;3.42;;;-4.50;99.90;;;;;;5061413;28;20044;-78
2024/01/10 02:25:13;;;;;;;7.13;4.00;;;-4.50;99.90;;;;;;5044107;28;20060;-78
2024/01/10 02:27:42;;;;;;;10.50;6.00;;;-4.50;99.90;;;;;;5045866;28;20048;-78
2024/01/10 02:30:10;;;;;;;9.63;2.40;;;-4.50;99.90;;;;;;5038249;28;20037;-78
2024/01/10 02:32:36;;;;;;;8.13;3.83;;;-4.50;99.90;;;;;;5021593;28;20128;-78
2024/01/10 02:35:03;;;;;;;2.95;2.75;;;-4.50;99.90;;;;;;5044478;28;20056;-78
2024/01/10 02:37:29;;;;;;;5.90;3.45;;;-4.50;99.90;;;;;;5028199;28;20041;-78
2024/01/10 02:39:54;;;;;;;8.27;3.08;;;-4.50;99.90;;;;;;5028998;28;20126;-78
2024/01/10 02:42:20;;;;;;;8.25;3.45;;;-4.50;99.90;;;;;;5026753;28;20462;-78
2024/01/10 02:44:46;;;;;;;8.15;3.20;;;-4.50;99.90;;;;;;5042234;28;20119;-78
2024/01/10 02:47:12;;;;;;;2.08;1.90;;;-4.50;99.90;;;;;;5013357;28;20072;-78
2024/01/10 02:49:39;;;;;;;6.22;4.28;;;-4.50;99.90;;;;;;5044885;28;20048;-78
2024/01/10 02:52:05;;;;;;;7.97;4.25;;;-4.50;99.90;;;;;;5040609;28;20041;-78
2024/01/10 02:54:30;;;;;;;7.57;4.95;;;-4.50;99.90;;;;;;5001864;28;20049;-78
2024/01/10 02:56:56;;;;;;;11.35;4.80;;;-4.50;99.90;;;;;;5044861;28;20096;-78
2024/01/10 02:59:22;;;;;;;11.75;4.00;;;-4.50;99.90;;;;;;5059155;28;20041;-79
2024/01/10 03:01:47;;;;;;;6.30;2.95;;;-4.50;99.90;;;;;;5044405;28;20099;-78
2024/01/10 03:04:13;;;;;;;4.60;3.63;;;-4.50;99.90;;;;;;5024629;28;20068;-78
2024/01/10 03:06:39;;;;;;;10.90;4.70;;;-4.50;99.90;;;;;;5024531;28;20046;-79
2024/01/10 03:09:04;;;;;;;8.52;3.53;;;-4.50;99.90;;;;;;5040791;28;20049;-78
2024/01/10 03:11:34;;;;;;;5.10;3.13;;;-4.50;99.90;;;;;;5026872;28;20065;-79
2024/01/10 03:14:08;;;;;;;5.68;3.75;;;-4.50;99.90;;;;;;5015410;28;20404;-78
2024/01/10 03:16:34;;;;;;;6.30;2.70;;;-4.50;99.90;;;;;;5033923;28;20051;-79
2024/01/10 03:19:00;;;;;;;5.18;3.28;;;-4.60;99.90;;;;;;5021112;28;20124;-78
2024/01/10 03:21:26;;;;;;;2.15;1.98;;;-4.50;99.90;;;;;;5051613;28;20462;-78
2024/01/10 03:23:56;;;;;;;10.77;4.20;;;-4.60;99.90;;;;;;5043728;28;20476;-78
2024/01/10 03:26:22;;;;;;;3.03;2.65;;;-4.60;99.90;;;;;;5043302;28;20048;-78
2024/01/10 03:28:48;;;;;;;3.88;1.98;;;-4.60;99.90;;;;;;5042921;28;20108;-78
2024/01/10 03:31:14;;;;;;;2.92;2.17;;;-4.60;99.90;;;;;;5060873;28;20045;-78
2024/01/10 03:33:40;;;;;;;8.00;2.45;;;-4.60;99.90;;;;;;5059129;28;20048;-78
2024/01/10 03:36:07;;;;;;;4.15;3.65;;;-4.60;99.90;;;;;;5027113;28;20038;-78
2024/01/10 03:38:32;;;;;;;4.45;3.97;;;-4.60;99.90;;;;;;5042064;28;20496;-78
2024/01/10 03:40:58;;;;;;;9.93;3.80;;;-4.60;99.90;;;;;;5025251;28;20041;-78
2024/01/10 03:43:24;;;;;;;5.47;3.45;;;-4.60;99.90;;;;;;5019888;28;20040;-78
2024/01/10 03:45:49;;;;;;;6.93;3.47;;;-4.60;99.90;;;;;;5009992;28;20115;-78
2024/01/10 03:48:15;;;;;;;4.68;1.88;;;-4.50;99.90;;;;;;5040693;28;20168;-78
2024/01/10 03:50:41;;;;;;;9.38;3.08;;;-4.50;99.90;;;;;;5023991;28;20033;-78
2024/01/10 03:53:07;;;;;;;8.63;4.03;;;-4.60;99.90;;;;;;5004891;28;20033;-78
2024/01/10 03:55:32;;;;;;;8.60;4.05;;;-4.50;99.90;;;;;;5059133;28;20067;-78
2024/01/10 03:57:58;;;;;;;5.70;2.75;;;-4.60;99.90;;;;;;5023524;28;20457;-78
2024/01/10 04:00:25;;;;;;;6.97;4.60;;;-4.60;99.90;;;;;;5026384;28;20045;-78
2024/01/10 04:02:52;;;;;;;7.90;4.70;;;-4.60;99.90;;;;;;5011028;28;20060;-79
2024/01/10 04:05:19;;;;;;;3.40;2.83;;;-4.60;99.90;;;;;;5043468;28;20077;-78
2024/01/10 04:07:45;;;;;;;5.38;2.47;;;-4.60;99.90;;;;;;5058922;28;20095;-78
2024/01/10 04:10:13;;;;;;;9.18;3.28;;;-4.60;99.90;;;;;;5044024;28;20484;-78
2024/01/10 04:12:40;;;;;;;9.98;3.70;;;-4.60;99.90;;;;;;5041190;28;20074;-78
2024/01/10 04:15:06;;;;;;;11.10;4.15;;;-4.60;99.90;;;;;;5043119;28;20047;-78
2024/01/10 04:17:32;;;;;;;5.15;4.13;;;-4.70;99.90;;;;;;5042261;28;20123;-78
2024/01/10 04:19:58;;;;;;;6.43;4.07;;;-4.60;99.90;;;;;;5043297;28;20052;-78
2024/01/10 04:22:24;;;;;;;3.53;2.67;;;-4.70;99.90;;;;;;5058795;28;20044;-78
2024/01/10 04:24:50;;;;;;;6.22;2.95;;;-4.70;99.90;;;;;;5031063;28;20048;-78
2024/01/10 04:27:16;;;;;;;4.38;2.65;;;-4.70;99.90;;;;;;5023212;28;20029;-78
2024/01/10 04:29:42;;;;;;;9.90;3.03;;;-4.70;99.90;;;;;;5012640;28;20110;-78
2024/01/10 04:32:08;;;;;;;6.07;3.33;;;-4.70;99.90;;;;;;5028662;28;20053;-78
2024/01/10 04:34:33;;;;;;;3.33;2.13;;;-4.70;99.90;;;;;;5056623;28;20144;-78
2024/01/10 04:36:59;;;;;;;3.05;2.78;;;-4.70;99.90;;;;;;5028563;28;20036;-78
2024/01/10 04:39:24;;;;;;;4.65;2.92;;;-4.70;99.90;;;;;;5049666;28;20040;-78
2024/01/10 04:41:50;;;;;;;6.05;4.13;;;-4.70;99.90;;;;;;5024999;28;20056;-78
2024/01/10 04:44:16;;;;;;;3.47;3.17;;;-4.70;99.90;;;;;;5048057;28;20037;-78
2024/01/10 04:46:41;;;;;;;5.55;3.20;;;-4.70;99.90;;;;;;5036022;28;20036;-78
2024/01/10 04:49:07;;;;;;;4.07;1.95;;;-4.70;99.90;;;;;;5023119;28;20057;-78
2024/01/10 04:51:33;;;;;;;7.22;2.63;;;-4.70;99.90;;;;;;5049963;28;20063;-78
2024/01/10 04:53:59;;;;;;;4.80;2.63;;;-4.70;99.90;;;;;;5026118;28;20519;-78
2024/01/10 04:56:25;;;;;;;7.05;3.90;;;-4.70;99.90;;;;;;5022792;28;20038;-78
2024/01/10 04:58:51;;;;;;;5.88;2.80;;;-4.70;99.90;;;;;;5039773;28;20038;-78
2024/01/10 05:01:17;;;;;;;12.35;4.35;;;-4.70;99.90;;;;;;5016658;28;20050;-78
2024/01/10 05:03:43;;;;;;;9.00;4.68;;;-4.70;99.90;;;;;;5006856;28;20076;-78
2024/01/10 05:06:09;;;;;;;4.47;3.20;;;-4.70;99.90;;;;;;5064380;28;20049;-78
2024/01/10 05:08:35;;;;;;;5.18;2.85;;;-4.70;99.90;;;;;;5022071;28;20050;-78
2024/01/10 05:11:00;;;;;;;10.25;3.17;;;-4.70;99.90;;;;;;5058324;28;20037;-78
2024/01/10 05:13:26;;;;;;;5.75;2.97;;;-4.70;99.90;;;;;;5041994;28;20041;-78
2024/01/10 05:15:52;;;;;;;4.13;2.80;;;-4.70;99.90;;;;;;5057816;28;20055;-78
2024/01/10 05:18:18;;;;;;;4.45;3.22;;;-4.70;99.90;;;;;;5009742;28;20102;-78
2024/01/10 05:20:44;;;;;;;2.63;2.40;;;-4.70;99.90;;;;;;5022763;28;20118;-78
2024/01/10 05:23:10;;;;;;;7.00;3.78;;;-4.70;99.90;;;;;;5059797;28;20060;-78
2024/01/10 05:25:36;;;;;;;6.95;3.25;;;-4.70;99.90;;;;;;5031015;28;20414;-78
2024/01/10 05:28:02;;;;;;;2.92;2.63;;;-4.70;99.90;;;;;;5040883;28;20064;-78
2024/01/10 05:30:28;;;;;;;3.50;3.17;;;-4.70;99.90;;;;;;5040676;28;20099;-78
2024/01/10 05:32:53;;;;;;;11.10;3.95;;;-4.70;99.90;;;;;;5023594;28;20064;-78
2024/01/10 05:35:19;;;;;;;3.83;3.35;;;-4.70;99.90;;;;;;5018364;28;20040;-78
2024/01/10 05:37:45;;;;;;;6.50;3.15;;;-4.80;99.90;;;;;;5019976;28;20052;-78
2024/01/10 05:40:11;;;;;;;8.45;4.15;;;-4.80;99.90;;;;;;5042857;28;20527;-78
2024/01/10 05:42:37;;;;;;;7.45;3.20;;;-4.80;99.90;;;;;;5050501;28;20053;-78
2024/01/10 05:45:04;;;;;;;9.00;3.33;;;-4.80;99.90;;;;;;5058007;28;20049;-78
2024/01/10 05:47:30;;;;;;;9.98;4.30;;;-4.80;99.90;;;;;;5030964;28;20053;-78
2024/01/10 05:49:56;;;;;;;7.38;3.90;;;-4.80;99.90;;;;;;5024695;28;20029;-78
2024/01/10 05:52:25;;;;;;;6.13;3.58;;;-4.80;99.90;;;;;;5006192;28;20103;-78
2024/01/10 05:54:50;;;;;;;7.35;4.53;;;-4.80;99.90;;;;;;5031357;28;20050;-78
2024/01/10 05:57:16;;;;;;;9.00;4.65;;;-4.80;99.90;;;;;;5027882;28;20510;-78
2024/01/10 05:59:42;;;;;;;4.22;3.80;;;-4.80;99.90;;;;;;5028281;28;20397;-78
2024/01/10 06:02:07;;;;;;;8.90;4.10;;;-4.90;99.90;;;;;;5046144;28;20109;-78
2024/01/10 06:04:33;;;;;;;9.25;2.72;;;-4.80;99.90;;;;;;5024868;28;20041;-78
2024/01/10 06:06:59;;;;;;;7.68;3.72;;;-4.80;99.90;;;;;;5007287;28;20040;-78
2024/01/10 06:09:25;;;;;;;10.35;4.22;;;-4.80;99.90;;;;;;5045403;28;20052;-78
2024/01/10 06:11:51;;;;;;;6.22;3.03;;;-4.80;99.90;;;;;;5045397;28;20036;-78
2024/01/10 06:14:17;;;;;;;14.90;3.72;;;-4.80;99.90;;;;;;5045452;28;20492;-78
2024/01/10 06:16:44;;;;;;;9.95;4.88;;;-4.80;99.90;;;;;;5044096;28;20045;-78
2024/01/10 06:19:11;;;;;;;8.80;4.43;;;-4.80;99.90;;;;;;5028958;28;20049;-77
2024/01/10 06:21:37;;;;;;;10.80;3.90;;;-4.90;99.90;;;;;;5062062;28;20053;-78
2024/01/10 06:24:03;;;;;;;22.17;4.32;;;-4.80;99.90;;;;;;5016572;28;20041;-78
2024/01/10 06:26:29;;;;;;;10.75;5.53;;;-4.80;99.90;;;;;;5011075;28;20053;-79
2024/01/10 06:28:55;;;;;;;3.75;3.35;;;-4.80;99.90;;;;;;5007485;28;20064;-78
2024/01/10 06:31:20;;;;;;;5.35;3.20;;;-4.80;99.90;;;;;;5027458;28;20605;-78
2024/01/10 06:33:47;;;;;;;7.97;4.20;;;-4.80;99.90;;;;;;5042033;28;20080;-78
2024/01/10 06:36:13;;;;;;;11.90;5.85;;;-4.80;99.90;;;;;;5044983;28;20043;-78
2024/01/10 06:38:39;;;;;;;6.95;5.45;;;-4.70;99.90;;;;;;5027459;28;20041;-78
2024/01/10 06:41:13;;;;;;;17.55;6.25;;;-4.70;99.90;;;;;;5044980;28;20501;-78
2024/01/10 06:43:39;;;;;;;5.40;3.55;;;-4.70;99.90;;;;;;5040224;28;20045;-78
2024/01/10 06:46:05;;;;;;;9.50;5.10;;;-4.70;99.90;;;;;;5018734;28;20144;-78
2024/01/10 06:48:31;;;;;;;5.93;3.13;;;-4.70;99.90;;;;;;5039937;28;20040;-78
2024/01/10 06:50:58;;;;;;;6.63;3.97;;;-4.70;99.90;;;;;;5056502;28;20579;-78
2024/01/10 06:53:24;;;;;;;4.75;2.75;;;-4.70;99.90;;;;;;5025461;28;20102;-78
2024/01/10 06:55:49;;;;;;;13.10;3.55;;;-4.70;99.90;;;;;;5043780;28;20126;-78
2024/01/10 06:58:15;;;;;;;5.78;3.70;;;-4.80;99.90;;;;;;5042223;28;20045;-78
2024/01/10 07:00:41;;;;;;;5.25;3.28;;;-4.80;99.90;;;;;;5019123;28;20109;-78
2024/01/10 07:03:07;;;;;;;8.77;3.03;;;-4.80;99.90;;;;;;5010671;28;20657;-78
2024/01/10 07:05:33;;;;;;;9.82;4.10;;;-4.80;99.90;;;;;;5033340;28;20109;-78
2024/01/10 07:08:02;;;;;;;16.90;9.98;;;-4.80;99.90;;;;;;5023332;28;20056;-78
2024/01/10 07:10:28;;;;;;;10.45;3.95;;;-4.80;99.90;;;;;;5039002;28;20072;-78
2024/01/10 07:12:55;;;;;;;7.78;3.33;;;-4.80;99.90;;;;;;5027068;28;20037;-78
2024/01/10 07:15:21;;;;;;;10.15;5.97;;;-4.80;99.90;;;;;;5055320;28;20041;-79
2024/01/10 07:17:46;;;;;;;18.85;7.32;;;-4.80;99.90;;;;;;5043392;28;20141;-78
2024/01/10 07:20:12;;;;;;;8.35;4.20;;;-4.80;99.90;;;;;;5007514;28;20092;-78
2024/01/10 07:22:43;;;;;;;9.55;4.70;;;-4.80;99.90;;;;;;5023878;28;20075;-78
2024/01/10 07:25:10;;;;;;;7.10;4.60;;;-4.80;99.90;;;;;;5026367;28;20078;-78
2024/01/10 07:27:37;;;;;;;6.35;3.65;;;-4.80;99.90;;;;;;5025185;28;20042;-78
2024/01/10 07:30:13;;;;;;;11.98;5.22;;;-4.70;99.90;;;;;;5027100;28;20084;-78
2024/01/10 07:32:40;;;;;;;14.45;7.38;;;-4.80;99.90;;;;;;5044961;28;20040;-78
2024/01/10 07:35:09;;;;;;;14.18;5.68;;;-4.80;99.90;;;;;;5039840;28;20034;-78
2024/01/10 07:37:36;;;;;;;14.25;5.43;;;-4.80;99.90;;;;;;5041493;28;20049;-78
2024/01/10 07:40:04;;;;;;;12.02;5.20;;;-4.80;99.90;;;;;;5007228;28;20112;-78
2024/01/10 07:42:31;;;;;;;11.18;3.75;;;-4.80;99.90;;;;;;5040571;28;20076;-78
2024/01/10 07:44:57;;;;;;;15.70;5.70;;;-4.80;99.90;;;;;;5024732;28;20044;-78
2024/01/10 07:47:22;;;;;;;9.98;5.32;;;-4.80;99.90;;;;;;5059218;28;20053;-78
2024/01/10 07:49:48;;;;;;;10.90;5.05;;;-4.80;99.90;;;;;;5060490;28;20059;-78
2024/01/10 07:52:16;;;;;;;10.48;5.22;;;-4.80;99.90;;;;;;5042820;28;20044;-78
2024/01/10 07:54:42;;;;;;;8.98;5.32;;;-4.70;99.90;;;;;;5023783;28;20108;-78
2024/01/10 07:57:08;;;;;;;5.68;3.38;;;-4.70;99.90;;;;;;5024777;28;20087;-78
2024/01/10 07:59:34;;;;;;;8.75;3.53;;;-4.70;99.90;;;;;;5026308;28;20045;-78
2024/01/10 08:02:00;;;;;;;9.65;5.18;;;-4.70;99.90;;;;;;5026134;28;20041;-78
2024/01/10 08:04:29;;;;;;;6.68;3.50;;;-4.60;99.90;;;;;;5024297;28;20040;-78
2024/01/10 08:06:55;;;;;;;7.72;3.75;;;-4.60;99.90;;;;;;5022147;28;20043;-77
2024/01/10 08:09:24;;;;;;;7.40;4.18;;;-4.60;99.90;;;;;;5023867;28;20076;-78
2024/01/10 08:11:50;;;;;;;7.13;3.22;;;-4.60;99.90;;;;;;5018338;28;20041;-77
2024/01/10 08:14:16;;;;;;;6.43;3.35;;;-4.50;99.90;;;;;;5039812;28;20087;-77
2024/01/10 08:16:42;;;;;;;6.47;4.00;;;-4.50;99.90;;;;;;5023992;28;20037;-77
2024/01/10 08:19:08;;;;;;;11.40;5.05;;;-4.40;99.90;;;;;;5007139;28;20060;-78
2024/01/10 08:21:34;;;;;;;7.25;4.22;;;-4.30;99.90;;;;;;5038967;28;20045;-78
2024/01/10 08:24:02;;;;;;;8.82;5.05;;;-4.30;99.90;;;;;;5041787;28;20373;-77
2024/01/10 08:26:28;;;;;;;3.63;3.30;;;-4.30;99.90;;;;;;5042747;28;20139;-77
2024/01/10 08:28:53;;;;;;;9.45;5.10;;;-4.30;99.90;;;;;;5058800;28;20072;-77
2024/01/10 08:31:19;;;;;;;8.50;3.55;;;-4.30;99.90;;;;;;5026230;28;20037;-77
2024/01/10 08:33:45;;;;;;;5.93;4.00;;;-4.30;99.90;;;;;;5040572;28;20081;-78
2024/01/10 08:36:12;;;;;;;7.72;4.20;;;-4.20;99.90;;;;;;5041512;28;20048;-77
2024/01/10 08:38:38;;;;;;;4.25;2.75;;;-4.10;99.90;;;;;;5050849;28;20128;-77
2024/01/10 08:41:04;;;;;;;6.25;3.05;;;-4.00;99.90;;;;;;5022885;28;20045;-77
2024/01/10 08:43:30;;;;;;;4.97;2.65;;;-3.90;99.90;;;;;;5037268;28;20044;-76
2024/01/10 08:45:57;;;;;;;6.53;3.90;;;-3.90;99.90;;;;;;5020156;28;20041;-77
2024/01/10 08:48:24;;;;;;;4.45;3.65;;;-3.90;99.90;;;;;;5041392;28;20063;-77
2024/01/10 08:50:50;;;;;;;7.32;4.57;;;-3.90;99.90;;;;;;5041290;28;20044;-77
2024/01/10 08:53:16;;;;;;;3.97;2.83;;;-3.90;99.90;;;;;;5040429;28;20549;-77
2024/01/10 08:55:42;;;;;;;6.15;3.28;;;-3.80;99.90;;;;;;5040801;28;20049;-77
2024/01/10 08:58:08;;;;;;;8.13;3.75;;;-3.80;99.90;;;;;;5058634;28;20502;-77
2024/01/10 09:00:34;;;;;;;12.30;4.70;;;-3.70;99.90;;;;;;5055290;28;20037;-77
2024/01/10 09:03:00;;;;;;;10.05;5.45;;;-3.70;99.90;;;;;;5015696;28;20051;-77
2024/01/10 09:05:26;;;;;;;7.55;4.10;;;-3.60;99.90;;;;;;5030016;28;20108;-77
2024/01/10 09:07:55;;;;;;;5.97;3.15;;;-3.50;99.90;;;;;;5024988;28;20072;-77
2024/01/10 09:10:21;;;;;;;7.38;4.68;;;-3.30;99.90;;;;;;5026629;28;20037;-77
2024/01/10 09:12:47;;;;;;;12.13;4.25;;;-3.10;99.90;;;;;;5041418;28;20048;-77
2024/01/10 09:15:14;;;;;;;7.90;3.78;;;-2.70;99.90;;;;;;5034192;28;20139;-76
2024/01/10 09:17:43;;;;;;;7.72;4.63;;;-2.60;99.90;;;;;;5023388;28;20049;-76
2024/01/10 09:20:10;;;;;;;11.93;4.45;;;-2.60;99.90;;;;;;5025531;28;20033;-77
2024/01/10 09:22:36;;;;;;;5.13;3.40;;;-2.60;99.90;;;;;;5028747;28;20041;-76
2024/01/10 09:25:04;;;;;;;10.52;4.88;;;-2.50;99.90;;;;;;5028396;28;20103;-76
2024/01/10 09:27:36;;;;;;;13.07;5.85;;;-2.40;99.90;;;;;;5009818;28;20041;-76
2024/01/10 09:30:03;;;;;;;7.05;4.75;;;-2.30;99.90;;;;;;5029479;28;20045;-76
2024/01/10 09:32:29;;;;;;;3.28;2.97;;;-2.20;99.90;;;;;;5029976;28;20048;-76
2024/01/10 09:34:55;;;;;;;12.35;4.47;;;-2.00;99.90;;;;;;5062898;28;20455;-77
2024/01/10 09:37:22;;;;;;;10.02;3.97;;;-1.60;99.90;;;;;;5060123;28;20040;-76
2024/01/10 09:39:48;;;;;;;8.00;4.45;;;-1.30;99.90;;;;;;5017438;28;20071;-76
2024/01/10 09:42:14;;;;;;;16.58;3.70;;;-0.90;99.90;;;;;;5061545;28;20049;-76
2024/01/10 09:44:41;;;;;;;6.63;3.65;;;-0.40;99.90;;;;;;5046487;28;20049;-76
2024/01/10 09:47:08;;;;;;;9.95;2.85;;;-0.10;99.90;;;;;;5020348;28;20056;-76
2024/01/10 09:49:35;;;;;;;5.60;3.10;;;0.20;99.90;;;;;;5039955;28;20033;-76
2024/01/10 09:52:04;;;;;;;15.70;6.55;;;0.30;99.90;;;;;;5002039;28;20149;-77
2024/01/10 09:54:31;;;;;;;10.82;3.72;;;0.30;99.90;;;;;;5045250;28;20451;-76
2024/01/10 09:57:00;;;;;;;11.73;4.78;;;0.30;99.90;;;;;;5046003;28;20055;-76
2024/01/10 09:59:26;;;;;;;7.18;4.38;;;0.30;99.90;;;;;;5044484;28;20308;-76
2024/01/10 10:01:58;;;;;;;8.98;4.40;;;0.40;99.90;;;;;;5028254;28;20062;-76
2024/01/10 10:04:27;;;;;;;9.80;5.18;;;0.10;99.90;;;;;;5044710;28;20084;-76
2024/01/10 10:07:03;;;;;;;10.05;5.22;;;0.00;99.90;;;;;;5032160;28;20120;-76
2024/01/10 10:09:30;;;;;;;5.88;3.60;;;-0.40;99.90;;;;;;5032576;28;20052;-76
2024/01/10 10:11:57;;;;;;;3.95;2.90;;;-0.90;99.90;;;;;;5043951;28;20108;-76
2024/01/10 10:14:26;;;;;;;10.10;5.78;;;-1.20;99.90;;;;;;5029435;28;20163;-75
2024/01/10 10:16:51;;;;;;;6.85;3.83;;;-1.40;99.90;;;;;;5060527;28;20056;-75
2024/01/10 10:19:24;;;;;;;4.72;3.35;;;-1.60;99.90;;;;;;5045719;28;20109;-75
2024/01/10 10:21:50;;;;;;;8.07;4.40;;;-1.80;99.90;;;;;;5043428;28;20109;-76
2024/01/10 10:24:17;;;;;;;7.55;3.97;;;-2.00;99.90;;;;;;5045007;28;20444;-76
2024/01/10 10:26:42;;;;;;;9.40;4.05;;;-2.00;99.90;;;;;;5062142;28;20056;-75
2024/01/10 10:29:09;;;;;;;5.82;2.67;;;-2.10;99.90;;;;;;5044366;28;20052;-75
2024/01/10 10:31:35;;;;;;;11.88;5.00;;;-2.10;99.90;;;;;;5027572;28;20189;-75
2024/01/10 10:34:02;;;;;;;8.40;4.22;;;-2.10;99.90;;;;;;5020109;28;20045;-75
2024/01/10 10:36:31;;;;;;;7.15;4.47;;;-2.10;99.90;;;;;;5061864;28;20076;-75
2024/01/10 10:39:01;;;;;;;16.25;2.45;;;-2.10;99.90;;;;;;5044613;28;20041;-75
2024/01/10 10:41:31;;;;;;;3.97;2.38;;;-2.00;99.90;;;;;;5028431;28;20044;-76
2024/01/10 10:43:58;;;;;;;15.10;4.32;;;-2.00;99.90;;;;;;5044669;28;20036;-75
2024/01/10 10:46:27;;;;;;;12.38;5.70;;;-2.00;99.90;;;;;;5026878;28;20055;-76
2024/01/10 10:48:53;;;;;;;5.25;2.90;;;-1.90;99.90;;;;;;5062073;28;20080;-76
2024/01/10 10:51:33;;;;;;;12.07;4.95;;;-1.90;99.90;;;;;;5060252;28;20069;-75
2024/01/10 10:53:59;;;;;;;9.40;3.38;;;-1.80;99.90;;;;;;5034377;28;20080;-76
2024/01/10 10:56:32;;;;;;;6.72;3.97;;;-1.80;99.90;;;;;;5044808;28;20045;-76
2024/01/10 10:59:01;;;;;;;5.80;3.42;;;-1.70;99.90;;;;;;5060798;28;20037;-76
2024/01/10 11:01:28;;;;;;;8.20;3.83;;;-1.70;99.90;;;;;;5061612;28;20073;-76
2024/01/10 11:03:54;;;;;;;10.02;4.32;;;-1.60;99.90;;;;;;5034135;28;20047;-76
2024/01/10 11:06:22;;;;;;;9.18;3.97;;;-1.60;99.90;;;;;;5044923;28;20108;-75
2024/01/10 11:08:53;;;;;;;5.28;3.08;;;-1.60;99.90;;;;;;5027009;28;20033;-76
2024/01/10 11:11:47;;;;;;;7.53;3.75;;;-1.60;99.90;;;;;;5044247;28;20098;-76
2024/01/10 11:14:39;;;;;;;2.35;1.92;;;-1.50;99.90;;;;;;5038299;28;20446;-75
2024/01/10 11:17:35;;;;;;;6.05;3.97;;;-1.50;99.90;;;;;;5043366;28;20045;-76
2024/01/10 11:20:32;;;;;;;5.07;3.33;;;-1.40;99.90;;;;;;5044050;28;20045;-76
2024/01/10 11:23:37;;;;;;;8.95;3.38;;;-1.40;99.90;;;;;;5061452;28;20057;-76
2024/01/10 11:26:03;;;;;;;5.93;3.15;;;-1.30;99.90;;;;;;5040796;28;20088;-76
2024/01/10 11:28:31;;;;;;;13.13;3.97;;;-1.30;99.90;;;;;;5044095;28;20041;-76
2024/01/10 11:30:58;;;;;;;5.57;3.10;;;-1.20;99.90;;;;;;5044060;28;20091;-76
2024/01/10 11:33:31;;;;;;;9.13;3.35;;;-1.20;99.90;;;;;;5043263;28;20045;-76
2024/01/10 11:36:17;;;;;;;10.45;3.65;;;-1.10;99.90;;;;;;5058527;28;20037;-75
2024/01/10 11:38:56;;;;;;;4.18;2.97;;;-1.00;99.90;;;;;;5043357;28;20150;-75
2024/01/10 11:41:35;;;;;;;5.28;3.17;;;-1.00;99.90;;;;;;5060421;28;20045;-75
2024/01/10 11:44:17;;;;;;;7.13;3.08;;;-0.90;99.90;;;;;;5060546;28;20045;-75
2024/01/10 11:46:43;;;;;;;6.53;2.87;;;-0.80;99.90;;;;;;5057181;28;20052;-75
2024/01/10 11:49:15;;;;;;;4.50;3.13;;;-0.80;99.90;;;;;;5044190;28;20099;-75
2024/01/10 11:51:56;;;;;;;5.50;3.75;;;-0.70;99.90;;;;;;5042934;28;20032;-75
2024/01/10 11:54:48;;;;;;;5.40;3.65;;;-0.70;99.90;;;;;;5043020;28;20049;-75
2024/01/10 11:57:27;;;;;;;7.40;4.15;;;-0.60;99.90;;;;;;5055917;28;20079;-75
2024/01/10 11:59:54;;;;;;;9.73;2.72;;;-0.60;99.90;;;;;;5060785;28;20043;-75
2024/01/10 12:02:22;;;;;;;7.85;3.15;;;-0.60;99.90;;;;;;5027266;28;20565;-75
2024/01/10 12:04:48;;;;;;;8.77;3.10;;;-0.50;99.90;;;;;;5043045;28;20055;-75
2024/01/10 12:07:15;;;;;;;4.47;3.08;;;-0.50;99.90;;;;;;5041194;28;20094;-75
2024/01/10 12:09:41;;;;;;;5.97;2.65;;;-0.50;99.90;;;;;;5043634;28;20075;-74
2024/01/10 12:12:07;;;;;;;5.85;3.10;;;-0.40;99.90;;;;;;5025769;28;20053;-74
2024/01/10 12:14:34;;;;;;;9.07;2.92;;;-0.40;99.90;;;;;;5043749;28;20731;-74
2024/01/10 12:17:00;;;;;;;4.18;2.70;;;-0.30;99.90;;;;;;5057987;28;20055;-75
2024/01/10 12:19:27;;;;;;;4.85;3.35;;;-0.30;99.90;;;;;;5060128;28;20087;-74
2024/01/10 12:21:53;;;;;;;3.78;2.45;;;-0.20;99.90;;;;;;5042879;28;20495;-75
2024/01/10 12:24:20;;;;;;;7.90;2.97;;;-0.30;99.90;;;;;;5042823;28;20033;-74
2024/01/10 12:26:47;;;;;;;3.90;2.33;;;-0.20;99.90;;;;;;5042529;28;20037;-74
2024/01/10 12:29:12;;;;;;;5.28;2.55;;;-0.20;99.90;;;;;;5041914;28;20068;-74
2024/01/10 12:31:39;;;;;;;4.32;2.67;;;-0.20;99.90;;;;;;5043566;28;20059;-74
2024/01/10 12:34:08;;;;;;;2.03;1.30;;;-0.10;99.90;;;;;;5058694;28;20104;-74
2024/01/10 12:36:34;;;;;;;8.13;2.63;;;-0.10;99.90;;;;;;5041801;28;20045;-74
2024/01/10 12:38:59;;;;;;;7.68;3.15;;;-0.10;99.90;;;;;;5018278;28;20045;-74
2024/01/10 12:41:26;;;;;;;9.68;3.40;;;-0.10;99.90;;;;;;5025913;28;20041;-74
2024/01/10 12:44:00;;;;;;;6.68;2.50;;;0.00;99.90;;;;;;5043139;28;20554;-74
2024/01/10 12:46:25;;;;;;;5.05;3.17;;;0.00;99.90;;;;;;5040993;28;20068;-74